createdAt,value
2023-02-22T00:00:42.954Z,6.11
2023-02-22T00:03:15.562Z,6.12
2023-02-22T00:05:53.558Z,6.11
2023-02-22T00:08:22.403Z,6.10
2023-02-22T00:10:52.718Z,6.10
2023-02-22T00:13:22.139Z,6.11
2023-02-22T00:15:49.661Z,6.15
2023-02-22T00:18:19.169Z,6.16
2023-02-22T00:20:45.915Z,6.14
2023-02-22T00:23:21.612Z,6.14
2023-02-22T00:25:50.708Z,6.12
2023-02-22T00:28:20.817Z,6.11
2023-02-22T00:30:48.210Z,6.10
2023-02-22T00:33:15.972Z,6.10
2023-02-22T00:35:45.870Z,6.13
2023-02-22T00:38:15.016Z,6.13
2023-02-22T00:40:41.542Z,6.13
2023-02-22T00:43:08.059Z,6.11
2023-02-22T00:45:36.068Z,6.14
2023-02-22T00:48:04.615Z,6.16
2023-02-22T00:50:32.670Z,6.17
2023-02-22T00:53:00.495Z,6.16
2023-02-22T00:55:30.260Z,6.15
2023-02-22T00:57:58.023Z,6.14
2023-02-22T01:00:29.018Z,6.14
2023-02-22T01:02:56.801Z,6.14
2023-02-22T01:05:27.140Z,6.13
2023-02-22T01:07:55.705Z,6.11
2023-02-22T01:10:24.891Z,6.08
2023-02-22T01:12:53.479Z,6.08
2023-02-22T01:15:22.976Z,6.04
2023-02-22T01:17:52.044Z,6.01
2023-02-22T01:20:19.178Z,5.97
2023-02-22T01:22:48.143Z,5.97
2023-02-22T01:25:23.652Z,5.98
2023-02-22T01:27:51.021Z,5.98
2023-02-22T01:30:22.550Z,5.97
2023-02-22T01:32:51.265Z,5.93
2023-02-22T01:35:20.782Z,5.89
2023-02-22T01:37:47.270Z,5.85
2023-02-22T01:40:25.064Z,5.86
2023-02-22T01:42:53.652Z,5.86
2023-02-22T01:45:42.057Z,5.86
2023-02-22T01:48:11.561Z,5.86
2023-02-22T01:50:42.343Z,5.84
2023-02-22T01:53:14.446Z,5.85
2023-02-22T01:55:41.779Z,5.84
2023-02-22T01:58:09.286Z,5.82
2023-02-22T02:00:36.948Z,5.83
2023-02-22T02:03:10.172Z,5.82
2023-02-22T02:05:37.805Z,5.82
2023-02-22T02:08:28.037Z,5.83
2023-02-22T02:10:56.544Z,5.79
2023-02-22T02:13:23.012Z,5.77
2023-02-22T02:15:52.776Z,5.77
2023-02-22T02:18:19.287Z,5.79
2023-02-22T02:21:00.971Z,5.78
2023-02-22T02:23:50.296Z,5.72
2023-02-22T02:26:36.705Z,5.68
2023-02-22T02:29:28.469Z,5.63
2023-02-22T02:32:01.023Z,5.59
2023-02-22T02:34:42.786Z,5.53
2023-02-22T02:37:18.075Z,5.49
2023-02-22T02:39:59.036Z,5.41
2023-02-22T02:42:33.844Z,5.35
2023-02-22T02:45:12.434Z,5.31
2023-02-22T02:47:45.486Z,5.26
2023-02-22T02:50:24.502Z,5.21
2023-02-22T02:52:55.377Z,5.19
2023-02-22T02:55:22.335Z,5.20
2023-02-22T02:57:48.730Z,5.18
2023-02-22T03:00:23.816Z,5.16
2023-02-22T03:03:03.572Z,5.15
2023-02-22T03:06:06.534Z,5.05
2023-02-22T03:08:43.210Z,4.98
2023-02-22T03:11:16.250Z,4.96
2023-02-22T03:14:16.241Z,4.95
2023-02-22T03:17:03.882Z,4.94
2023-02-22T03:19:38.179Z,4.89
2023-02-22T03:22:14.068Z,4.86
2023-02-22T03:24:55.698Z,4.82
2023-02-22T03:27:33.532Z,4.80
2023-02-22T03:30:07.378Z,4.73
2023-02-22T03:32:38.378Z,4.73
2023-02-22T03:35:10.163Z,4.68
2023-02-22T03:37:44.234Z,4.62
2023-02-22T03:40:17.746Z,4.60
2023-02-22T03:42:50.950Z,4.55
2023-02-22T03:45:21.193Z,4.54
2023-02-22T03:47:52.010Z,4.51
2023-02-22T03:50:25.251Z,4.49
2023-02-22T03:52:53.169Z,4.48
2023-02-22T03:55:25.419Z,4.43
2023-02-22T03:57:57.461Z,4.44
2023-02-22T04:00:27.893Z,4.47
2023-02-22T04:02:54.538Z,4.48
2023-02-22T04:05:22.062Z,4.45
2023-02-22T04:07:48.593Z,4.43
2023-02-22T04:10:16.425Z,4.40
2023-02-22T04:12:43.561Z,4.36
2023-02-22T04:15:15.480Z,4.40
2023-02-22T04:17:42.457Z,4.42
2023-02-22T04:20:13.641Z,4.44
2023-02-22T04:23:02.772Z,4.45
2023-02-22T04:25:29.901Z,4.47
2023-02-22T04:27:57.781Z,4.45
2023-02-22T04:30:36.580Z,4.45
2023-02-22T04:33:07.370Z,4.45
2023-02-22T04:35:35.635Z,4.42
2023-02-22T04:38:04.317Z,4.39
2023-02-22T04:40:31.771Z,4.36
2023-02-22T04:43:00.144Z,4.32
2023-02-22T04:45:26.991Z,4.31
2023-02-22T04:47:53.994Z,4.32
2023-02-22T04:50:20.876Z,4.29
2023-02-22T04:52:47.482Z,4.26
2023-02-22T04:55:14.141Z,4.24
2023-02-22T04:57:42.025Z,4.21
2023-02-22T05:00:10.390Z,4.22
2023-02-22T05:02:40.701Z,4.20
2023-02-22T05:05:07.380Z,4.14
2023-02-22T05:07:33.798Z,4.15
2023-02-22T05:10:02.615Z,4.15
2023-02-22T05:12:29.073Z,4.20
2023-02-22T05:14:55.511Z,4.19
2023-02-22T05:17:21.979Z,4.21
2023-02-22T05:19:48.372Z,4.20
2023-02-22T05:22:14.807Z,4.21
2023-02-22T05:24:41.246Z,4.20
2023-02-22T05:27:07.719Z,4.20
2023-02-22T05:29:34.116Z,4.19
2023-02-22T05:32:02.570Z,4.23
2023-02-22T05:34:29.140Z,4.27
2023-02-22T05:36:55.589Z,4.25
2023-02-22T05:39:22.337Z,4.24
2023-02-22T05:41:48.891Z,4.17
2023-02-22T05:44:15.505Z,4.07
2023-02-22T05:46:42.088Z,4.03
2023-02-22T05:49:08.630Z,4.01
2023-02-22T05:51:35.114Z,4.04
2023-02-22T05:54:01.581Z,4.07
2023-02-22T05:56:30.094Z,4.07
2023-02-22T05:58:58.333Z,4.08
2023-02-22T06:01:25.370Z,4.13
2023-02-22T06:03:52.778Z,4.12
2023-02-22T06:06:22.265Z,4.13
2023-02-22T06:08:49.490Z,4.13
2023-02-22T06:11:16.444Z,4.15
2023-02-22T06:13:49.665Z,4.13
2023-02-22T06:16:16.174Z,4.12
2023-02-22T06:18:43.157Z,4.15
2023-02-22T06:21:09.949Z,4.16
2023-02-22T06:23:36.634Z,4.12
2023-02-22T06:26:03.119Z,4.11
2023-02-22T06:28:29.585Z,4.11
2023-02-22T06:30:56.276Z,4.14
2023-02-22T06:33:22.747Z,4.17
2023-02-22T06:35:49.237Z,4.18
2023-02-22T06:38:25.265Z,4.19
2023-02-22T06:40:51.995Z,4.20
2023-02-22T06:43:18.623Z,4.18
2023-02-22T06:45:45.161Z,4.17
2023-02-22T06:48:11.609Z,4.16
2023-02-22T06:50:38.079Z,4.13
2023-02-22T06:53:05.022Z,4.07
2023-02-22T06:55:33.862Z,4.04
2023-02-22T06:58:00.866Z,4.08
2023-02-22T07:00:29.284Z,4.05
2023-02-22T07:02:57.223Z,4.00
2023-02-22T07:05:25.461Z,4.00
2023-02-22T07:07:53.809Z,3.98
2023-02-22T07:10:27.487Z,4.02
2023-02-22T07:12:54.282Z,4.04
2023-02-22T07:15:23.670Z,4.07
2023-02-22T07:17:51.365Z,4.10
2023-02-22T07:20:20.415Z,4.08
2023-02-22T07:22:47.978Z,4.07
2023-02-22T07:25:14.495Z,4.11
2023-02-22T07:27:42.230Z,4.10
2023-02-22T07:30:16.779Z,4.08
2023-02-22T07:32:44.042Z,4.07
2023-02-22T07:35:18.454Z,4.02
2023-02-22T07:37:45.049Z,4.02
2023-02-22T07:40:12.426Z,3.98
2023-02-22T07:42:51.581Z,4.03
2023-02-22T07:45:18.500Z,4.07
2023-02-22T07:47:47.496Z,4.13
2023-02-22T07:50:18.633Z,4.20
2023-02-22T07:52:47.065Z,4.20
2023-02-22T07:55:16.744Z,4.23
2023-02-22T07:57:45.349Z,4.31
2023-02-22T08:00:14.588Z,4.35
2023-02-22T08:02:42.884Z,4.38
2023-02-22T08:05:11.009Z,4.40
2023-02-22T08:07:37.990Z,4.40
2023-02-22T08:10:07.547Z,4.42
2023-02-22T08:12:36.121Z,4.43
2023-02-22T08:15:04.650Z,4.49
2023-02-22T08:17:31.091Z,4.59
2023-02-22T08:19:57.608Z,4.60
2023-02-22T08:22:24.209Z,4.67
2023-02-22T08:24:54.139Z,4.67
2023-02-22T08:27:31.427Z,4.73
2023-02-22T08:29:57.941Z,4.72
2023-02-22T08:32:24.626Z,4.76
2023-02-22T08:34:51.702Z,4.80
2023-02-22T08:37:18.977Z,4.81
2023-02-22T08:39:45.708Z,4.81
2023-02-22T08:42:12.393Z,4.87
2023-02-22T08:44:40.068Z,4.85
2023-02-22T08:47:07.482Z,4.89
2023-02-22T08:49:33.931Z,4.93
2023-02-22T08:52:00.372Z,4.98
2023-02-22T08:54:26.825Z,5.00
2023-02-22T08:56:53.318Z,4.99
2023-02-22T08:59:19.763Z,4.92
2023-02-22T09:01:46.268Z,4.93
2023-02-22T09:04:12.993Z,4.95
2023-02-22T09:06:43.388Z,4.94
2023-02-22T09:09:10.169Z,5.03
2023-02-22T09:11:36.680Z,5.06
2023-02-22T09:14:03.188Z,5.06
2023-02-22T09:16:31.056Z,5.11
2023-02-22T09:18:57.541Z,5.17
2023-02-22T09:21:23.999Z,5.26
2023-02-22T09:23:50.436Z,5.41
2023-02-22T09:26:16.839Z,5.45
2023-02-22T09:28:43.333Z,5.44
2023-02-22T09:31:09.797Z,5.46
2023-02-22T09:33:36.440Z,5.51
2023-02-22T09:36:03.024Z,5.65
2023-02-22T09:38:30.252Z,5.79
2023-02-22T09:41:02.710Z,5.80
2023-02-22T09:43:53.219Z,5.80
2023-02-22T09:46:20.216Z,5.86
2023-02-22T09:49:02.412Z,5.86
2023-02-22T09:51:37.408Z,5.88
2023-02-22T09:54:10.879Z,5.91
2023-02-22T09:56:39.463Z,5.97
2023-02-22T09:59:08.585Z,6.17
2023-02-22T10:01:46.524Z,6.30
2023-02-22T10:04:26.027Z,6.39
2023-02-22T10:06:59.582Z,6.41
2023-02-22T10:09:29.263Z,6.53
2023-02-22T10:12:02.782Z,6.62
2023-02-22T10:14:53.306Z,6.69
2023-02-22T10:17:40.262Z,6.74
2023-02-22T10:20:28.620Z,6.85
2023-02-22T10:23:08.994Z,6.87
2023-02-22T10:25:38.734Z,7.02
2023-02-22T10:28:18.602Z,7.12
2023-02-22T10:31:06.272Z,7.33
2023-02-22T10:34:02.231Z,7.48
2023-02-22T10:36:29.155Z,7.62
2023-02-22T10:39:00.088Z,7.75
2023-02-22T10:41:42.226Z,7.79
2023-02-22T10:44:08.733Z,7.79
2023-02-22T10:46:35.543Z,7.94
2023-02-22T10:49:08.847Z,8.10
2023-02-22T10:51:35.735Z,8.13
2023-02-22T10:54:14.343Z,8.08
2023-02-22T10:57:07.339Z,8.21
2023-02-22T10:59:36.214Z,8.35
2023-02-22T11:02:18.202Z,8.46
2023-02-22T11:04:50.605Z,8.58
2023-02-22T11:07:27.230Z,8.67
2023-02-22T11:09:59.975Z,8.75
2023-02-22T11:12:38.370Z,8.58
2023-02-22T11:15:16.534Z,8.62
2023-02-22T11:17:45.138Z,8.75
2023-02-22T11:20:25.562Z,8.86
2023-02-22T11:22:54.783Z,8.76
2023-02-22T11:25:26.341Z,8.77
2023-02-22T11:27:54.020Z,8.62
2023-02-22T11:30:31.930Z,8.70
2023-02-22T11:33:01.485Z,8.84
2023-02-22T11:35:27.906Z,8.89
2023-02-22T11:38:09.437Z,9.01
2023-02-22T11:40:35.986Z,9.07
2023-02-22T11:43:14.395Z,9.07
2023-02-22T11:46:02.021Z,9.08
2023-02-22T11:48:31.351Z,9.15
2023-02-22T11:51:14.960Z,9.15
2023-02-22T11:54:19.363Z,9.23
2023-02-22T11:56:48.906Z,9.22
2023-02-22T11:59:32.232Z,9.22
2023-02-22T12:02:18.471Z,9.24
2023-02-22T12:04:49.633Z,9.27
2023-02-22T12:07:45.723Z,9.29
2023-02-22T12:10:32.447Z,9.36
2023-02-22T12:13:36.683Z,9.36
2023-02-22T12:16:23.903Z,9.32
2023-02-22T12:19:08.471Z,9.23
2023-02-22T12:21:40.577Z,9.10
2023-02-22T12:24:16.313Z,9.09
2023-02-22T12:26:50.542Z,9.04
2023-02-22T12:29:37.595Z,9.02
2023-02-22T12:32:14.164Z,9.03
2023-02-22T12:34:45.452Z,9.10
2023-02-22T12:37:28.845Z,9.12
2023-02-22T12:39:59.355Z,9.14
2023-02-22T12:43:05.395Z,9.19
2023-02-22T12:45:31.826Z,9.20
2023-02-22T12:48:40.561Z,9.22
2023-02-22T12:51:33.197Z,9.28
2023-02-22T12:54:11.819Z,9.35
2023-02-22T12:56:48.035Z,9.37
2023-02-22T12:59:44.440Z,9.47
2023-02-22T13:02:34.368Z,9.53
2023-02-22T13:05:01.593Z,9.47
2023-02-22T13:07:43.114Z,9.52
2023-02-22T13:10:40.781Z,9.57
2023-02-22T13:13:43.902Z,9.59
2023-02-22T13:16:15.867Z,9.63
2023-02-22T13:19:01.026Z,9.58
2023-02-22T13:21:56.805Z,9.65
2023-02-22T13:24:54.134Z,9.65
2023-02-22T13:27:26.099Z,9.58
2023-02-22T13:29:59.070Z,9.48
2023-02-22T13:32:59.339Z,9.39
2023-02-22T13:35:53.922Z,9.52
2023-02-22T13:38:35.114Z,9.63
2023-02-22T13:41:21.678Z,9.62
2023-02-22T13:44:06.716Z,9.63
2023-02-22T13:47:04.891Z,9.61
2023-02-22T13:49:47.877Z,9.59
2023-02-22T13:52:19.985Z,9.60
2023-02-22T13:54:54.708Z,9.58
2023-02-22T13:57:48.499Z,9.51
2023-02-22T14:00:14.833Z,9.48
2023-02-22T14:03:18.281Z,9.43
2023-02-22T14:05:50.749Z,9.45
2023-02-22T14:08:17.287Z,9.48
2023-02-22T14:10:43.686Z,9.46
2023-02-22T14:13:11.539Z,9.50
2023-02-22T14:15:58.062Z,9.53
2023-02-22T14:18:29.406Z,9.53
2023-02-22T14:21:07.866Z,9.51
2023-02-22T14:23:41.276Z,9.39
2023-02-22T14:26:27.062Z,9.36
2023-02-22T14:29:08.851Z,9.34
2023-02-22T14:31:43.299Z,9.35
2023-02-22T14:34:12.969Z,9.36
2023-02-22T14:36:42.457Z,9.38
2023-02-22T14:39:18.517Z,9.39
2023-02-22T14:41:54.172Z,9.42
2023-02-22T14:44:25.949Z,9.40
2023-02-22T14:46:58.051Z,9.40
2023-02-22T14:49:30.719Z,9.46
2023-02-22T14:52:03.902Z,9.52
2023-02-22T14:54:58.085Z,9.57
2023-02-22T14:57:53.634Z,9.65
2023-02-22T15:00:32.417Z,9.66
2023-02-22T15:03:00.584Z,9.69
2023-02-22T15:05:30.971Z,9.68
2023-02-22T15:08:01.371Z,9.65
2023-02-22T15:10:43.801Z,9.60
2023-02-22T15:13:20.087Z,9.63
2023-02-22T15:15:49.916Z,9.64
2023-02-22T15:18:40.802Z,9.61
2023-02-22T15:21:13.089Z,9.57
2023-02-22T15:23:47.161Z,9.55
2023-02-22T15:26:59.032Z,9.56
2023-02-22T15:29:35.612Z,9.48
2023-02-22T15:32:02.183Z,9.40
2023-02-22T15:34:31.382Z,9.38
2023-02-22T15:37:12.578Z,9.35
2023-02-22T15:39:43.719Z,9.33
2023-02-22T15:42:24.605Z,9.30
2023-02-22T15:44:54.610Z,9.27
2023-02-22T15:47:24.279Z,9.27
2023-02-22T15:50:26.736Z,9.23
2023-02-22T15:52:57.926Z,9.21
2023-02-22T15:55:34.101Z,9.17
2023-02-22T15:58:07.752Z,9.15
2023-02-22T16:00:37.987Z,9.12
2023-02-22T16:03:07.995Z,9.08
2023-02-22T16:05:44.165Z,9.05
2023-02-22T16:08:17.871Z,8.99
2023-02-22T16:10:58.543Z,8.94
2023-02-22T16:13:32.434Z,8.93
2023-02-22T16:16:02.245Z,8.90
2023-02-22T16:18:33.588Z,8.86
2023-02-22T16:21:21.598Z,8.81
2023-02-22T16:23:56.011Z,8.78
2023-02-22T16:26:34.211Z,8.74
2023-02-22T16:29:04.167Z,8.70
2023-02-22T16:31:33.897Z,8.64
2023-02-22T16:34:02.506Z,8.61
2023-02-22T16:36:42.616Z,8.56
2023-02-22T16:39:19.410Z,8.53
2023-02-22T16:41:46.101Z,8.48
2023-02-22T16:44:13.480Z,8.44
2023-02-22T16:46:41.825Z,8.42
2023-02-22T16:49:12.323Z,8.38
2023-02-22T16:51:47.309Z,8.34
2023-02-22T16:54:29.681Z,8.29
2023-02-22T16:57:00.232Z,8.30
2023-02-22T16:59:26.809Z,8.27
2023-02-22T17:01:53.277Z,8.24
2023-02-22T17:04:22.475Z,8.19
2023-02-22T17:06:48.984Z,8.18
2023-02-22T17:09:15.686Z,8.15
2023-02-22T17:11:43.466Z,8.10
2023-02-22T17:14:13.048Z,8.07
2023-02-22T17:16:39.513Z,8.05
2023-02-22T17:19:15.150Z,8.04
2023-02-22T17:21:41.618Z,8.01
2023-02-22T17:24:14.092Z,7.99
2023-02-22T17:26:41.576Z,7.99
2023-02-22T17:29:08.007Z,7.99
2023-02-22T17:31:34.997Z,7.98
2023-02-22T17:34:03.451Z,8.00
2023-02-22T17:36:33.340Z,7.99
2023-02-22T17:39:00.354Z,8.02
2023-02-22T17:41:26.936Z,8.02
2023-02-22T17:43:54.286Z,8.03
2023-02-22T17:46:21.069Z,8.05
2023-02-22T17:48:50.242Z,8.03
2023-02-22T17:51:16.747Z,8.04
2023-02-22T17:53:43.151Z,8.05
2023-02-22T17:56:13.256Z,8.07
2023-02-22T17:58:40.965Z,8.05
2023-02-22T18:01:20.534Z,8.04
2023-02-22T18:03:47.230Z,8.06
2023-02-22T18:06:22.605Z,8.05
2023-02-22T18:08:55.765Z,8.04
2023-02-22T18:11:26.156Z,8.04
2023-02-22T18:13:57.626Z,8.03
2023-02-22T18:16:28.047Z,8.03
2023-02-22T18:18:55.122Z,8.03
2023-02-22T18:21:22.336Z,8.02
2023-02-22T18:23:48.864Z,8.04
2023-02-22T18:26:17.617Z,8.04
2023-02-22T18:28:44.377Z,8.03
2023-02-22T18:31:14.633Z,8.04
2023-02-22T18:33:45.042Z,8.04
2023-02-22T18:36:13.002Z,8.05
2023-02-22T18:38:42.791Z,8.06
2023-02-22T18:41:14.643Z,8.07
2023-02-22T18:43:41.749Z,8.07
2023-02-22T18:46:18.057Z,8.07
2023-02-22T18:48:52.277Z,8.07
2023-02-22T18:51:18.767Z,8.07
2023-02-22T18:53:47.552Z,8.07
2023-02-22T18:56:17.729Z,8.07
2023-02-22T18:58:44.980Z,8.07
2023-02-22T19:01:17.324Z,8.07
2023-02-22T19:03:47.083Z,8.09
2023-02-22T19:06:16.168Z,8.08
2023-02-22T19:08:43.959Z,8.06
2023-02-22T19:11:17.625Z,8.05
2023-02-22T19:13:47.944Z,8.04
2023-02-22T19:16:16.820Z,8.04
2023-02-22T19:18:43.995Z,8.04
2023-02-22T19:21:12.983Z,8.01
2023-02-22T19:23:45.904Z,7.99
2023-02-22T19:26:13.900Z,7.97
2023-02-22T19:28:40.358Z,7.96
2023-02-22T19:31:11.089Z,7.95
2023-02-22T19:33:37.590Z,7.95
2023-02-22T19:36:04.430Z,7.92
2023-02-22T19:38:30.982Z,7.93
2023-02-22T19:40:57.409Z,7.93
2023-02-22T19:43:24.048Z,7.92
2023-02-22T19:45:50.579Z,7.91
2023-02-22T19:48:18.835Z,7.90
2023-02-22T19:50:49.330Z,7.88
2023-02-22T19:53:16.542Z,7.87
2023-02-22T19:55:43.716Z,7.86
2023-02-22T19:58:10.536Z,7.85
2023-02-22T20:00:37.022Z,7.85
2023-02-22T20:03:06.442Z,7.83
2023-02-22T20:05:36.873Z,7.82
2023-02-22T20:08:03.412Z,7.82
2023-02-22T20:10:30.326Z,7.81
2023-02-22T20:12:56.779Z,7.81
2023-02-22T20:15:23.983Z,7.81
2023-02-22T20:17:51.338Z,7.81
2023-02-22T20:20:18.521Z,7.78
2023-02-22T20:22:45.618Z,7.77
2023-02-22T20:25:13.582Z,7.75
2023-02-22T20:27:40.329Z,7.72
2023-02-22T20:30:08.613Z,7.70
2023-02-22T20:32:35.558Z,7.69
2023-02-22T20:35:02.411Z,7.69
2023-02-22T20:37:30.018Z,7.67
2023-02-22T20:39:56.475Z,7.67
2023-02-22T20:42:22.882Z,7.66
2023-02-22T20:44:50.069Z,7.64
2023-02-22T20:47:16.612Z,7.65
2023-02-22T20:49:43.118Z,7.62
2023-02-22T20:52:09.611Z,7.62
2023-02-22T20:54:37.914Z,7.61
2023-02-22T20:57:07.891Z,7.62
2023-02-22T20:59:34.539Z,7.62
2023-02-22T21:02:01.890Z,7.62
2023-02-22T21:04:33.015Z,7.60
2023-02-22T21:07:08.441Z,7.56
2023-02-22T21:09:34.890Z,7.53
2023-02-22T21:12:01.472Z,7.47
2023-02-22T21:14:29.423Z,7.46
2023-02-22T21:16:55.895Z,7.44
2023-02-22T21:19:25.758Z,7.45
2023-02-22T21:21:57.152Z,7.44
2023-02-22T21:24:26.096Z,7.43
2023-02-22T21:26:52.717Z,7.43
2023-02-22T21:29:19.350Z,7.42
2023-02-22T21:31:45.925Z,7.42
2023-02-22T21:34:16.154Z,7.44
2023-02-22T21:36:43.409Z,7.44
2023-02-22T21:39:19.011Z,7.43
2023-02-22T21:41:48.019Z,7.42
2023-02-22T21:44:15.082Z,7.43
2023-02-22T21:46:41.817Z,7.44
2023-02-22T21:49:08.492Z,7.44
2023-02-22T21:51:35.390Z,7.42
2023-02-22T21:54:07.517Z,7.44
2023-02-22T21:56:39.851Z,7.42
2023-02-22T21:59:15.525Z,7.41
2023-02-22T22:01:47.701Z,7.41
2023-02-22T22:04:21.453Z,7.39
2023-02-22T22:06:53.575Z,7.38
2023-02-22T22:09:21.777Z,7.37
2023-02-22T22:11:59.192Z,7.39
2023-02-22T22:14:26.981Z,7.37
2023-02-22T22:16:58.483Z,7.38
2023-02-22T22:19:26.973Z,7.36
2023-02-22T22:21:54.007Z,7.34
2023-02-22T22:24:22.603Z,7.34
2023-02-22T22:26:55.895Z,7.33
2023-02-22T22:29:24.355Z,7.32
2023-02-22T22:31:51.963Z,7.32
2023-02-22T22:34:19.439Z,7.32
2023-02-22T22:36:46.462Z,7.33
2023-02-22T22:39:13.089Z,7.34
2023-02-22T22:41:44.169Z,7.33
2023-02-22T22:44:11.979Z,7.33
2023-02-22T22:46:41.595Z,7.34
2023-02-22T22:49:10.476Z,7.34
2023-02-22T22:51:37.945Z,7.33
2023-02-22T22:54:09.257Z,7.34
2023-02-22T22:56:37.722Z,7.32
2023-02-22T22:59:09.786Z,7.33
2023-02-22T23:01:44.283Z,7.32
2023-02-22T23:04:13.357Z,7.33
2023-02-22T23:06:42.078Z,7.33
2023-02-22T23:09:18.657Z,7.33
2023-02-22T23:11:50.517Z,7.34
2023-02-22T23:14:19.732Z,7.35
2023-02-22T23:16:51.291Z,7.35
2023-02-22T23:19:19.371Z,7.34
2023-02-22T23:21:48.116Z,7.33
2023-02-22T23:24:16.403Z,7.32
2023-02-22T23:26:50.726Z,7.30
2023-02-22T23:29:18.593Z,7.29
2023-02-22T23:31:48.085Z,7.29
2023-02-22T23:34:16.856Z,7.28
2023-02-22T23:36:46.682Z,7.28
2023-02-22T23:39:15.826Z,7.31
2023-02-22T23:41:42.418Z,7.31
2023-02-22T23:44:17.694Z,7.28
2023-02-22T23:46:48.080Z,7.27
2023-02-22T23:49:20.154Z,7.28
2023-02-22T23:51:48.006Z,7.27
2023-02-22T23:54:19.222Z,7.26
2023-02-22T23:56:58.551Z,7.26
2023-02-22T23:59:26.793Z,7.24
